Belocean — 9V8782 — position and weather

sailwx.info

Track history (hours):
 
Tides and Currents Weather Stations Pressure Air Temp Water Temp Dewpoint Dewpoint Depression Visibility Wind Speed Wind Dir Waves Ship Positions

Belocean

Last reported at 2016-Sep-04 16:18 UTC. Time now 2016-Sep-28 23:54 UTC.
Position S 28°42' E 032°37'.
Warning: this ship's position is 24 days out of date.

Length 190 m; draft 13.1 m.

Type: Ship. MMSI: 563582000.

Date/timePositionNaut miles runAvg speedWind from/ knotsBaromVisibWave heightAir tempDewpointWater temp
2016-Sep-04 16:18S 28°42' E 032°37'7 9.5
2016-Sep-04 15:33S 28°48' E 032°33'10 9.6
2016-Sep-04 14:28S 28°56' E 032°26'9 9.8
2016-Sep-04 13:31S 29°04' E 032°19'4010.0
2016-Sep-04 09:30S 29°33' E 031°48'1112.1
2016-Sep-04 08:33S 29°42' E 031°40'1211.8
2016-Sep-04 07:34S 29°51' E 031°31'1413.7
2016-Sep-04 06:34S 30°00' E 031°20'2713.7
2016-Sep-04 04:34S 30°19' E 030°56'  
Track history (hours):
 
Tides and Currents Weather Stations Pressure Air Temp Water Temp Dewpoint Dewpoint Depression Visibility Wind Speed Wind Dir Waves Ship Positions

Belocean

Last reported at 2016-Sep-04 16:18 UTC. Time now 2016-Sep-28 23:54 UTC.
Position S 28°42' E 032°37'.
Warning: this ship's position is 24 days out of date.

Length 190 m; draft 13.1 m.

Type: Ship. MMSI: 563582000.

Date/timePositionNaut miles runAvg speedWind from/ knotsBaromVisibWave heightAir tempDewpointWater temp
2016-Sep-04 16:18S 28°42' E 032°37'7 9.5
2016-Sep-04 15:33S 28°48' E 032°33'10 9.6
2016-Sep-04 14:28S 28°56' E 032°26'9 9.8
2016-Sep-04 13:31S 29°04' E 032°19'4010.0
2016-Sep-04 09:30S 29°33' E 031°48'1112.1
2016-Sep-04 08:33S 29°42' E 031°40'1211.8
2016-Sep-04 07:34S 29°51' E 031°31'1413.7
2016-Sep-04 06:34S 30°00' E 031°20'2713.7
2016-Sep-04 04:34S 30°19' E 030°56'  

Dump ship's entire track history